createdAt,value
2014-08-05T08:58:05.919Z,27.7
2014-08-05T08:58:24.247Z,27.7
2014-08-05T08:58:42.575Z,27.7
2014-08-05T08:59:00.921Z,27.7
2014-08-05T08:59:19.249Z,27.7
2014-08-05T08:59:37.577Z,27.7
2014-08-05T08:59:55.923Z,27.9
2014-08-05T09:00:14.251Z,28.1
2014-08-05T09:00:32.579Z,28.2
2014-08-05T09:00:50.910Z,28.2
2014-08-05T09:01:09.238Z,28.3
2014-08-05T09:01:27.581Z,28.4
2014-08-05T09:01:45.910Z,28.4
2014-08-05T09:02:04.240Z,28.4
2014-08-05T09:02:22.771Z,28.5
2014-08-05T09:02:40.896Z,28.5
2014-08-05T09:02:59.242Z,28.5
2014-08-05T09:03:17.570Z,28.5
2014-08-05T09:03:35.898Z,28.5
2014-08-05T09:03:54.244Z,28.6
2014-08-05T09:04:12.572Z,28.6
2014-08-05T09:04:30.900Z,28.6
2014-08-05T09:04:49.228Z,28.6
2014-08-05T09:05:07.761Z,28.7
2014-08-05T09:05:25.902Z,28.7
2014-08-05T09:05:44.230Z,28.7
2014-08-05T09:06:02.560Z,28.7
2014-08-05T09:06:20.888Z,28.7
2014-08-05T09:06:39.216Z,28.7
2014-08-05T09:06:57.547Z,28.8
2014-08-05T09:07:15.875Z,28.8
2014-08-05T09:07:34.203Z,28.8
2014-08-05T09:07:52.580Z,28.8
2014-08-05T09:08:10.892Z,28.9
2014-08-05T09:08:29.220Z,28.9
2014-08-05T09:08:47.549Z,28.8
2014-08-05T09:09:05.879Z,28.8
2014-08-05T09:09:24.269Z,28.8
2014-08-05T09:09:42.613Z,28.8
2014-08-05T09:10:00.958Z,28.8
2014-08-05T09:10:19.286Z,28.8
2014-08-05T09:10:37.630Z,28.8
2014-08-05T09:10:55.944Z,28.8
2014-08-05T09:11:14.288Z,28.8
2014-08-05T09:11:32.616Z,28.8
2014-08-05T09:11:50.944Z,28.8
2014-08-05T09:12:09.274Z,28.8
2014-08-05T09:12:27.602Z,28.8
2014-08-05T09:12:45.931Z,28.8
2014-08-05T09:13:04.277Z,28.8
2014-08-05T09:13:22.605Z,28.8
2014-08-05T09:13:40.934Z,28.8
2014-08-05T09:13:59.264Z,28.8
2014-08-05T09:14:17.592Z,28.8
2014-08-05T09:14:35.936Z,28.9
2014-08-05T09:14:54.265Z,28.9
2014-08-05T09:15:12.593Z,28.9
2014-08-05T09:15:30.921Z,28.9
2014-08-05T09:15:49.265Z,28.8
2014-08-05T09:16:07.595Z,28.8
2014-08-05T09:16:25.923Z,28.8
2014-08-05T09:16:44.251Z,28.8
2014-08-05T09:17:02.581Z,28.8
2014-08-05T09:17:20.909Z,28.8
2014-08-05T09:17:39.253Z,28.8
2014-08-05T09:17:57.581Z,28.8
2014-08-05T09:18:15.911Z,28.9
2014-08-05T09:18:34.239Z,28.9
2014-08-05T09:18:52.599Z,28.9
2014-08-05T09:19:10.913Z,28.9
2014-08-05T09:19:29.241Z,29
2014-08-05T09:19:47.570Z,29
2014-08-05T09:20:05.900Z,28.9
2014-08-05T09:20:24.228Z,28.9
2014-08-05T09:20:42.572Z,28.9
2014-08-05T09:21:00.900Z,28.9
2014-08-05T09:21:19.230Z,28.9
2014-08-05T09:21:37.574Z,28.9
2014-08-05T09:21:55.902Z,29
2014-08-05T09:22:14.232Z,29
2014-08-05T09:22:32.560Z,29
2014-08-05T09:22:50.888Z,29
2014-08-05T09:23:09.218Z,29
2014-08-05T09:23:27.546Z,29
2014-08-05T09:23:45.874Z,29
2014-08-05T09:24:04.204Z,29
2014-08-05T09:24:22.532Z,29
2014-08-05T09:24:40.860Z,29
2014-08-05T09:24:59.188Z,29
2014-08-05T09:25:17.519Z,29
2014-08-05T09:25:35.863Z,29
2014-08-05T09:25:54.191Z,29
2014-08-05T09:26:12.521Z,29
2014-08-05T09:26:30.849Z,29
2014-08-05T09:26:49.177Z,29
2014-08-05T09:27:07.507Z,29
2014-08-05T09:27:25.836Z,29.1
2014-08-05T09:27:44.367Z,29.1
2014-08-05T09:28:02.492Z,29.1
2014-08-05T09:28:20.837Z,29.1
2014-08-05T09:28:39.165Z,29.1
2014-08-05T09:28:57.493Z,29.1
2014-08-05T09:29:15.823Z,29.1
2014-08-05T09:29:34.151Z,29.1
2014-08-05T09:29:52.495Z,29.1
2014-08-05T09:30:10.825Z,29.1
2014-08-05T09:30:29.169Z,29.2
2014-08-05T09:30:47.497Z,29.2
2014-08-05T09:31:05.825Z,29.2
2014-08-05T09:31:24.155Z,29.3
2014-08-05T09:31:42.499Z,29.3
2014-08-05T09:32:00.827Z,29.3
2014-08-05T09:32:19.158Z,29.3
2014-08-05T09:32:37.486Z,29.3
2014-08-05T09:32:55.814Z,29.3
2014-08-05T09:33:14.143Z,29.3
2014-08-05T09:33:32.487Z,29.3
2014-08-05T09:33:50.815Z,29.3
2014-08-05T09:34:09.143Z,29.4
2014-08-05T09:34:27.475Z,29.3
2014-08-05T09:34:45.818Z,29.4
2014-08-05T09:35:04.146Z,29.4
2014-08-05T09:35:22.477Z,29.4
2014-08-05T09:35:40.805Z,29.4
2014-08-05T09:35:59.148Z,29.4
2014-08-05T09:36:17.479Z,29.4
2014-08-05T09:36:35.807Z,29.4
2014-08-05T09:36:54.338Z,29.5
2014-08-05T09:37:12.479Z,29.5
2014-08-05T09:37:30.809Z,29.5
2014-08-05T09:37:49.137Z,29.4
2014-08-05T09:38:07.465Z,29.4
2014-08-05T09:38:25.794Z,29.4
2014-08-05T09:38:44.138Z,29.4
2014-08-05T09:39:02.466Z,29.5
2014-08-05T09:39:20.797Z,29.5
2014-08-05T09:39:39.141Z,29.5
2014-08-05T09:39:57.469Z,29.5
2014-08-05T09:40:15.797Z,29.5
2014-08-05T09:40:34.126Z,29.5
2014-08-05T09:40:52.470Z,29.5
2014-08-05T09:41:10.798Z,29.5
2014-08-05T09:41:29.128Z,29.5
2014-08-05T09:41:47.456Z,29.5
2014-08-05T09:42:05.800Z,29.5
2014-08-05T09:42:24.130Z,29.5
2014-08-05T09:42:42.458Z,29.5
2014-08-05T09:43:00.786Z,29.5
2014-08-05T09:43:19.130Z,29.5
2014-08-05T09:43:37.460Z,29.5
2014-08-05T09:43:55.804Z,29.5
2014-08-05T09:44:14.132Z,29.5
2014-08-05T09:44:32.462Z,29.5
2014-08-05T09:44:50.790Z,29.6
2014-08-05T09:45:09.134Z,29.6
2014-08-05T09:45:27.464Z,29.6
2014-08-05T09:45:45.792Z,29.6
2014-08-05T09:46:04.121Z,29.6
2014-08-05T09:46:22.464Z,29.6
2014-08-05T09:46:40.794Z,29.6
2014-08-05T09:46:59.123Z,29.6
2014-08-05T09:47:17.451Z,29.6
2014-08-05T09:47:35.795Z,29.6
2014-08-05T09:47:54.108Z,29.6
2014-08-05T09:48:12.452Z,29.6
2014-08-05T09:48:30.783Z,29.6
2014-08-05T09:48:49.111Z,29.6
2014-08-05T09:49:07.455Z,29.6
2014-08-05T09:49:25.783Z,29.6
2014-08-05T09:49:44.112Z,29.6
2014-08-05T09:50:02.456Z,29.6
2014-08-05T09:50:20.784Z,29.6
2014-08-05T09:50:39.114Z,29.6
2014-08-05T09:50:57.442Z,29.6
2014-08-05T09:51:15.786Z,29.6
2014-08-05T09:51:34.100Z,29.6
2014-08-05T09:51:52.444Z,29.6
2014-08-05T09:52:10.772Z,29.6
2014-08-05T09:52:29.100Z,29.6
2014-08-05T09:52:47.649Z,29.6
2014-08-05T09:53:05.774Z,29.6
2014-08-05T09:53:24.118Z,29.6
2014-08-05T09:53:42.448Z,29.6
2014-08-05T09:54:00.792Z,29.6
2014-08-05T09:54:19.151Z,29.6
2014-08-05T09:54:37.591Z,29.6
2014-08-05T09:54:55.856Z,29.6
2014-08-05T09:55:14.184Z,29.6
2014-08-05T09:55:32.528Z,29.6
2014-08-05T09:55:50.859Z,29.6
2014-08-05T09:56:09.187Z,29.6
2014-08-05T09:56:27.719Z,29.6
2014-08-05T09:56:45.861Z,29.7
2014-08-05T09:57:04.189Z,29.6
2014-08-05T09:57:22.518Z,29.7
2014-08-05T09:57:40.848Z,29.7
2014-08-05T09:57:59.191Z,29.7
2014-08-05T09:58:17.723Z,29.7
2014-08-05T09:58:35.863Z,29.7
2014-08-05T09:58:54.192Z,29.6
2014-08-05T09:59:12.521Z,29.6
2014-08-05T09:59:30.849Z,29.7
2014-08-05T09:59:49.194Z,29.7
2014-08-05T10:00:07.523Z,29.7
2014-08-05T10:00:25.851Z,29.7
2014-08-05T10:00:44.212Z,29.7
2014-08-05T10:01:02.525Z,29.7
2014-08-05T10:01:20.853Z,29.7
2014-08-05T10:01:39.181Z,29.7
2014-08-05T10:01:57.527Z,29.7
2014-08-05T10:02:15.855Z,29.8
2014-08-05T10:02:34.183Z,29.8
2014-08-05T10:02:52.513Z,29.8
2014-08-05T10:03:10.841Z,29.8
2014-08-05T10:03:29.232Z,29.7
2014-08-05T10:03:47.609Z,29.7
2014-08-05T10:04:05.937Z,29.7
2014-08-05T10:04:24.265Z,29.6
2014-08-05T10:04:42.593Z,29.7
2014-08-05T10:05:00.923Z,29.7
2014-08-05T10:05:19.267Z,29.7
2014-08-05T10:05:37.595Z,29.7
2014-08-05T10:05:55.956Z,29.7
2014-08-05T10:06:14.285Z,29.7
2014-08-05T10:06:32.613Z,29.7
2014-08-05T10:06:50.958Z,29.7
2014-08-05T10:07:09.287Z,29.7
2014-08-05T10:07:27.615Z,29.7
2014-08-05T10:07:45.943Z,29.7
2014-08-05T10:08:04.273Z,29.7
2014-08-05T10:08:22.617Z,29.8
2014-08-05T10:08:40.945Z,29.7
2014-08-05T10:08:59.275Z,29.7
2014-08-05T10:09:17.619Z,29.7
2014-08-05T10:09:35.947Z,29.6
2014-08-05T10:09:54.293Z,29.6
2014-08-05T10:10:12.621Z,29.6
2014-08-05T10:10:30.949Z,29.7
2014-08-05T10:10:49.279Z,29.7
2014-08-05T10:11:07.607Z,29.7
2014-08-05T10:11:25.951Z,29.7
2014-08-05T10:11:44.279Z,29.7
2014-08-05T10:12:02.608Z,29.7
2014-08-05T10:12:20.936Z,29.7
2014-08-05T10:12:39.280Z,29.7
2014-08-05T10:12:57.611Z,29.8
2014-08-05T10:13:15.939Z,29.8
2014-08-05T10:13:34.283Z,29.8
2014-08-05T10:13:52.613Z,29.8
2014-08-05T10:14:10.941Z,29.8
2014-08-05T10:14:29.269Z,29.8
2014-08-05T10:14:47.613Z,29.8
2014-08-05T10:15:05.943Z,29.8
2014-08-05T10:15:24.271Z,29.8
2014-08-05T10:15:42.599Z,29.9
2014-08-05T10:16:00.930Z,29.8
2014-08-05T10:16:19.273Z,29.8
2014-08-05T10:16:37.601Z,29.9
2014-08-05T10:16:55.932Z,29.9
2014-08-05T10:17:14.275Z,29.9
2014-08-05T10:17:32.603Z,30
2014-08-05T10:17:50.932Z,30
2014-08-05T10:18:09.261Z,30
2014-08-05T10:18:27.589Z,30
2014-08-05T10:18:45.917Z,30
2014-08-05T10:19:04.450Z,30
2014-08-05T10:19:22.591Z,30
2014-08-05T10:19:40.919Z,29.9
2014-08-05T10:19:59.249Z,29.9
2014-08-05T10:20:17.577Z,29.9
2014-08-05T10:20:35.905Z,29.9
2014-08-05T10:20:54.249Z,29.9
2014-08-05T10:21:12.579Z,29.8
2014-08-05T10:21:30.907Z,29.8
2014-08-05T10:21:49.235Z,29.8
2014-08-05T10:22:07.581Z,29.9
2014-08-05T10:22:25.909Z,29.8
2014-08-05T10:22:44.237Z,29.8
2014-08-05T10:23:02.771Z,29.8
2014-08-05T10:23:21.099Z,29.8
2014-08-05T10:23:39.224Z,29.8
2014-08-05T10:23:57.552Z,29.8
2014-08-05T10:24:15.898Z,29.8
2014-08-05T10:24:34.226Z,29.7
2014-08-05T10:24:52.554Z,29.7
2014-08-05T10:25:10.883Z,29.7
2014-08-05T10:25:29.211Z,29.7
2014-08-05T10:25:47.555Z,29.7
2014-08-05T10:26:05.886Z,29.6
2014-08-05T10:26:24.214Z,29.6
2014-08-05T10:26:42.558Z,29.6
2014-08-05T10:27:00.886Z,29.6
2014-08-05T10:27:19.216Z,29.5
2014-08-05T10:27:37.544Z,29.5
2014-08-05T10:27:55.872Z,29.5
2014-08-05T10:28:14.218Z,29.6
2014-08-05T10:28:32.546Z,29.6
2014-08-05T10:28:50.874Z,29.6
2014-08-05T10:29:09.205Z,29.6
2014-08-05T10:29:27.548Z,29.6
2014-08-05T10:29:46.080Z,29.6
2014-08-05T10:30:04.207Z,29.6
2014-08-05T10:30:22.535Z,29.6
2014-08-05T10:30:40.878Z,29.6
2014-08-05T10:30:59.207Z,29.6
2014-08-05T10:31:17.537Z,29.6
2014-08-05T10:31:35.865Z,29.6
2014-08-05T10:31:54.209Z,29.6
2014-08-05T10:32:12.539Z,29.6
2014-08-05T10:32:30.867Z,29.6
2014-08-05T10:32:49.195Z,29.7
2014-08-05T10:33:07.525Z,29.7
2014-08-05T10:33:25.869Z,29.7
2014-08-05T10:33:44.197Z,29.7
2014-08-05T10:34:02.525Z,29.7
2014-08-05T10:34:20.854Z,29.7
2014-08-05T10:34:39.182Z,29.7
2014-08-05T10:34:57.526Z,29.8
2014-08-05T10:35:15.856Z,29.7
2014-08-05T10:35:34.184Z,29.7
2014-08-05T10:35:52.512Z,29.7
2014-08-05T10:36:10.859Z,29.6
2014-08-05T10:36:29.187Z,29.6
2014-08-05T10:36:47.515Z,29.6
2014-08-05T10:37:05.844Z,29.6
2014-08-05T10:37:24.174Z,29.6
2014-08-05T10:37:42.705Z,29.6
2014-08-05T10:38:00.846Z,29.6
2014-08-05T10:38:19.175Z,29.6
2014-08-05T10:38:37.503Z,29.6
2014-08-05T10:38:55.847Z,29.5
2014-08-05T10:39:14.177Z,29.6
2014-08-05T10:39:32.505Z,29.6
2014-08-05T10:39:51.036Z,29.6
2014-08-05T10:40:09.177Z,29.6
2014-08-05T10:40:27.507Z,29.6
2014-08-05T10:40:45.835Z,29.6
2014-08-05T10:41:04.179Z,29.6
2014-08-05T10:41:22.509Z,29.6
2014-08-05T10:41:40.837Z,29.6
2014-08-05T10:41:59.165Z,29.6
2014-08-05T10:42:17.495Z,29.6
2014-08-05T10:42:35.839Z,29.6
2014-08-05T10:42:54.167Z,29.6
2014-08-05T10:43:12.495Z,29.6
2014-08-05T10:43:30.825Z,29.6
2014-08-05T10:43:49.169Z,29.6
2014-08-05T10:44:07.497Z,29.6
2014-08-05T10:44:25.827Z,29.6
2014-08-05T10:44:44.155Z,29.6
2014-08-05T10:45:02.499Z,29.6
2014-08-05T10:45:20.828Z,29.6
2014-08-05T10:45:39.156Z,29.6
2014-08-05T10:45:57.485Z,29.6
2014-08-05T10:46:15.828Z,29.5
2014-08-05T10:46:34.159Z,29.6
2014-08-05T10:46:52.488Z,29.6
2014-08-05T10:47:11.034Z,29.6
2014-08-05T10:47:29.161Z,29.6
2014-08-05T10:47:47.490Z,29.6
2014-08-05T10:48:05.818Z,29.6
2014-08-05T10:48:24.366Z,29.6
2014-08-05T10:48:42.491Z,29.6
2014-08-05T10:49:00.834Z,29.6
2014-08-05T10:49:19.162Z,29.6
2014-08-05T10:49:37.494Z,29.6
2014-08-05T10:49:55.837Z,29.6
2014-08-05T10:50:14.165Z,29.6
2014-08-05T10:50:32.495Z,29.6
2014-08-05T10:50:50.838Z,29.6
2014-08-05T10:51:09.166Z,29.6
2014-08-05T10:51:27.497Z,29.6
2014-08-05T10:51:45.825Z,29.6
2014-08-05T10:52:04.168Z,29.6
2014-08-05T10:52:22.497Z,29.7
2014-08-05T10:52:40.827Z,29.6
2014-08-05T10:52:59.155Z,29.6
2014-08-05T10:53:17.499Z,29.6
2014-08-05T10:53:35.830Z,29.6
2014-08-05T10:53:54.158Z,29.7
2014-08-05T10:54:12.502Z,29.6
2014-08-05T10:54:30.831Z,29.6
2014-08-05T10:54:49.159Z,29.6
2014-08-05T10:55:07.487Z,29.6
2014-08-05T10:55:25.831Z,29.6
2014-08-05T10:55:44.162Z,29.6
2014-08-05T10:56:02.490Z,29.6
2014-08-05T10:56:20.818Z,29.7
2014-08-05T10:56:39.164Z,29.6
2014-08-05T10:56:57.492Z,29.7
2014-08-05T10:57:15.820Z,29.6
2014-08-05T10:57:34.150Z,29.7
2014-08-05T10:57:52.494Z,29.7
2014-08-05T10:58:10.822Z,29.7
2014-08-05T10:58:29.150Z,29.7
2014-08-05T10:58:47.479Z,29.7
2014-08-05T10:59:06.011Z,29.7
2014-08-05T10:59:24.151Z,29.7
2014-08-05T10:59:42.481Z,29.7
2014-08-05T11:00:01.013Z,29.7
2014-08-05T11:00:19.138Z,29.7
2014-08-05T11:00:37.466Z,29.7
2014-08-05T11:00:55.796Z,29.7
2014-08-05T11:01:14.124Z,29.8
2014-08-05T11:01:32.452Z,29.7
2014-08-05T11:01:50.783Z,29.7
2014-08-05T11:02:09.127Z,29.7
2014-08-05T11:02:27.455Z,29.7
2014-08-05T11:02:45.799Z,29.7
2014-08-05T11:03:04.128Z,29.8
2014-08-05T11:03:22.456Z,29.8
2014-08-05T11:03:40.784Z,29.7
2014-08-05T11:03:59.130Z,29.8
2014-08-05T11:04:17.458Z,29.8
2014-08-05T11:04:35.786Z,29.8
2014-08-05T11:04:54.116Z,29.8
2014-08-05T11:05:12.444Z,29.8
2014-08-05T11:05:30.788Z,29.8
2014-08-05T11:05:49.118Z,29.8
2014-08-05T11:06:07.446Z,29.8
2014-08-05T11:06:25.775Z,29.7
2014-08-05T11:06:44.337Z,29.8
2014-08-05T11:07:02.464Z,29.8
2014-08-05T11:07:20.792Z,29.8
2014-08-05T11:07:39.120Z,29.8
2014-08-05T11:07:57.451Z,29.8
2014-08-05T11:08:15.795Z,29.8
2014-08-05T11:08:34.123Z,29.8
2014-08-05T11:08:52.451Z,29.8
2014-08-05T11:09:10.781Z,29.8
2014-08-05T11:09:29.124Z,29.8
2014-08-05T11:09:47.452Z,29.8
2014-08-05T11:10:05.783Z,29.8
2014-08-05T11:10:24.111Z,29.8
2014-08-05T11:10:42.439Z,29.8
2014-08-05T11:11:00.769Z,29.8
2014-08-05T11:11:19.113Z,29.8
2014-08-05T11:11:37.441Z,29.8
2014-08-05T11:11:55.769Z,29.8
2014-08-05T11:12:14.099Z,29.8
2014-08-05T11:12:32.443Z,29.8
2014-08-05T11:12:50.771Z,29.9
2014-08-05T11:13:09.304Z,29.9
2014-08-05T11:13:27.429Z,29.8
2014-08-05T11:13:45.773Z,29.8
2014-08-05T11:14:04.103Z,29.8
2014-08-05T11:14:22.447Z,29.8
2014-08-05T11:14:40.775Z,29.8
2014-08-05T11:14:59.103Z,29.8
2014-08-05T11:15:17.433Z,29.8
2014-08-05T11:15:35.761Z,29.8
2014-08-05T11:15:54.089Z,29.8
2014-08-05T11:16:12.435Z,29.8
2014-08-05T11:16:30.966Z,29.8
2014-08-05T11:16:49.107Z,29.8
2014-08-05T11:17:07.437Z,29.8
2014-08-05T11:17:25.765Z,29.9
2014-08-05T11:17:44.093Z,29.9
2014-08-05T11:18:02.422Z,29.9
2014-08-05T11:18:20.767Z,29.9
2014-08-05T11:18:39.095Z,29.9
2014-08-05T11:18:57.424Z,29.9
2014-08-05T11:19:15.754Z,29.9
2014-08-05T11:19:34.097Z,29.9
2014-08-05T11:19:52.426Z,29.9
2014-08-05T11:20:10.879Z,29.9
2014-08-05T11:20:29.099Z,29.9
2014-08-05T11:20:47.428Z,29.9
2014-08-05T11:21:05.771Z,29.9
2014-08-05T11:21:24.101Z,29.9
2014-08-05T11:21:42.430Z,29.9
2014-08-05T11:22:00.758Z,29.9
2014-08-05T11:22:19.087Z,29.9
2014-08-05T11:22:37.431Z,29.9
2014-08-05T11:22:55.774Z,29.9
2014-08-05T11:23:14.308Z,29.9
2014-08-05T11:23:32.448Z,29.9
2014-08-05T11:23:50.776Z,29.9
2014-08-05T11:24:09.104Z,29.9
2014-08-05T11:24:27.451Z,30
2014-08-05T11:24:45.779Z,30
2014-08-05T11:25:04.107Z,30
2014-08-05T11:25:22.438Z,30
2014-08-05T11:25:40.781Z,30
2014-08-05T11:25:59.094Z,30
2014-08-05T11:26:17.423Z,30
2014-08-05T11:26:35.767Z,30
2014-08-05T11:26:54.095Z,30
2014-08-05T11:27:12.423Z,30
2014-08-05T11:27:30.753Z,30
2014-08-05T11:27:49.081Z,30
2014-08-05T11:28:07.581Z,30
2014-08-05T11:28:25.912Z,30.1
2014-08-05T11:28:44.240Z,30.1
2014-08-05T11:29:02.584Z,30.1
2014-08-05T11:29:20.912Z,30.1
2014-08-05T11:29:39.241Z,30
2014-08-05T11:29:57.570Z,30
2014-08-05T11:30:15.898Z,30
2014-08-05T11:30:34.229Z,30
2014-08-05T11:30:52.557Z,30
2014-08-05T11:31:10.885Z,30
2014-08-05T11:31:29.213Z,30
2014-08-05T11:31:47.542Z,30
2014-08-05T11:32:05.870Z,30
2014-08-05T11:32:24.199Z,30
2014-08-05T11:32:42.530Z,30
2014-08-05T11:33:00.858Z,30
2014-08-05T11:33:19.186Z,29.9
2014-08-05T11:33:37.532Z,29.9
2014-08-05T11:33:56.063Z,29.9
2014-08-05T11:34:14.188Z,29.9
2014-08-05T11:34:32.518Z,29.9
2014-08-05T11:34:50.862Z,29.9
2014-08-05T11:35:09.159Z,29.9
2014-08-05T11:35:27.518Z,29.9
2014-08-05T11:35:45.847Z,29.9
2014-08-05T11:36:04.191Z,29.9
2014-08-05T11:36:22.519Z,29.9
2014-08-05T11:36:40.849Z,30
2014-08-05T11:36:59.177Z,29.9
2014-08-05T11:37:17.505Z,29.9
2014-08-05T11:37:35.836Z,29.9
2014-08-05T11:37:54.179Z,29.9
2014-08-05T11:38:12.507Z,29.9
2014-08-05T11:38:30.851Z,29.9
2014-08-05T11:38:49.182Z,30
2014-08-05T11:39:07.510Z,30
2014-08-05T11:39:25.839Z,29.9
2014-08-05T11:39:44.169Z,29.9
2014-08-05T11:40:02.512Z,29.9
2014-08-05T11:40:20.841Z,29.9
2014-08-05T11:40:39.169Z,29.9
2014-08-05T11:40:57.498Z,29.9
2014-08-05T11:41:15.826Z,29.9
2014-08-05T11:41:34.154Z,29.9
2014-08-05T11:41:52.500Z,29.9
2014-08-05T11:42:10.828Z,29.9
2014-08-05T11:42:29.172Z,29.9
2014-08-05T11:42:47.502Z,30
2014-08-05T11:43:05.830Z,29.9
2014-08-05T11:43:24.158Z,29.9
2014-08-05T11:43:42.486Z,29.9
2014-08-05T11:44:00.816Z,30
2014-08-05T11:44:19.144Z,30
2014-08-05T11:44:37.473Z,30
2014-08-05T11:44:55.803Z,30
2014-08-05T11:45:14.131Z,29.9
2014-08-05T11:45:32.459Z,29.9
2014-08-05T11:45:50.789Z,29.9
2014-08-05T11:46:09.133Z,29.9
2014-08-05T11:46:27.461Z,29.8
2014-08-05T11:46:45.790Z,29.8
2014-08-05T11:47:04.337Z,29.8
2014-08-05T11:47:22.665Z,29.9
2014-08-05T11:47:40.806Z,29.9
2014-08-05T11:47:59.137Z,29.9
2014-08-05T11:48:17.465Z,29.9
2014-08-05T11:48:35.793Z,29.9
2014-08-05T11:48:54.139Z,29.9
2014-08-05T11:49:12.467Z,29.9
2014-08-05T11:49:30.795Z,29.9
2014-08-05T11:49:49.124Z,29.9
2014-08-05T11:50:07.468Z,29.9
2014-08-05T11:50:25.796Z,29.9
2014-08-05T11:50:44.124Z,29.8
2014-08-05T11:51:02.454Z,29.8
2014-08-05T11:51:20.798Z,29.7
2014-08-05T11:51:39.126Z,29.7
2014-08-05T11:51:57.457Z,29.7
2014-08-05T11:52:15.785Z,29.7
2014-08-05T11:52:34.114Z,29.8
2014-08-05T11:52:52.443Z,29.8
2014-08-05T11:53:10.786Z,29.8
2014-08-05T11:53:29.115Z,29.7
2014-08-05T11:53:47.445Z,29.7
2014-08-05T11:54:05.773Z,29.7
2014-08-05T11:54:24.320Z,29.7
2014-08-05T11:54:42.445Z,29.7
2014-08-05T11:55:00.790Z,29.7
2014-08-05T11:55:19.119Z,29.7
2014-08-05T11:55:37.447Z,29.7
2014-08-05T11:55:55.777Z,29.8
2014-08-05T11:56:14.105Z,29.8
2014-08-05T11:56:32.449Z,29.8
2014-08-05T11:56:50.779Z,29.8
2014-08-05T11:57:09.107Z,29.8
2014-08-05T11:57:27.451Z,29.8
2014-08-05T11:57:45.779Z,29.8
2014-08-05T11:58:04.109Z,29.8
2014-08-05T11:58:22.437Z,29.8
2014-08-05T11:58:40.765Z,29.8
2014-08-05T11:58:59.111Z,29.7
2014-08-05T11:59:17.439Z,29.7
2014-08-05T11:59:35.767Z,29.8
2014-08-05T11:59:54.097Z,29.7
2014-08-05T12:00:12.441Z,29.7
2014-08-05T12:00:30.769Z,29.7
2014-08-05T12:00:49.097Z,29.7
2014-08-05T12:01:07.427Z,29.7
2014-08-05T12:01:25.756Z,29.7
2014-08-05T12:01:44.084Z,29.8
2014-08-05T12:02:02.414Z,29.8
2014-08-05T12:02:20.758Z,29.7
2014-08-05T12:02:39.086Z,29.8
2014-08-05T12:02:57.416Z,29.8
2014-08-05T12:03:15.947Z,29.7
2014-08-05T12:03:34.072Z,29.7
2014-08-05T12:03:52.400Z,29.8
2014-08-05T12:04:10.746Z,29.8
2014-08-05T12:04:29.074Z,29.7
2014-08-05T12:04:47.402Z,29.8
2014-08-05T12:05:05.732Z,29.8
2014-08-05T12:05:24.060Z,29.8
2014-08-05T12:05:42.389Z,29.7
2014-08-05T12:06:00.734Z,29.7
2014-08-05T12:06:19.062Z,29.7
2014-08-05T12:06:37.594Z,29.7
2014-08-05T12:06:55.719Z,29.7
2014-08-05T12:07:14.048Z,29.7
2014-08-05T12:07:32.392Z,29.7
2014-08-05T12:07:50.720Z,29.7
2014-08-05T12:08:09.050Z,29.7
2014-08-05T12:08:27.378Z,29.7
2014-08-05T12:08:45.722Z,29.7
2014-08-05T12:09:04.053Z,29.7
2014-08-05T12:09:22.397Z,29.7
2014-08-05T12:09:40.725Z,29.7
2014-08-05T12:09:59.053Z,29.7
2014-08-05T12:10:17.382Z,29.7
2014-08-05T12:10:35.726Z,29.6
2014-08-05T12:10:54.054Z,29.6
2014-08-05T12:11:12.385Z,29.6
2014-08-05T12:11:30.729Z,29.6
2014-08-05T12:11:49.057Z,29.6
2014-08-05T12:12:07.386Z,29.6
2014-08-05T12:12:25.714Z,29.5
2014-08-05T12:12:44.058Z,29.6
2014-08-05T12:13:02.386Z,29.6
2014-08-05T12:13:20.716Z,29.5
2014-08-05T12:13:39.044Z,29.5
2014-08-05T12:13:57.388Z,29.5
2014-08-05T12:14:15.719Z,29.5
2014-08-05T12:14:34.047Z,29.5
2014-08-05T12:14:52.375Z,29.5
2014-08-05T12:15:10.705Z,29.5
2014-08-05T12:15:31.377Z,29.5
2014-08-05T12:15:49.705Z,29.5
2014-08-05T12:16:08.035Z,29.5
2014-08-05T12:16:26.331Z,29.5
2014-08-05T12:16:44.691Z,29.5
2014-08-05T12:17:03.035Z,29.5
2014-08-05T12:17:21.365Z,29.5
2014-08-05T12:17:39.693Z,29.5
2014-08-05T12:17:58.021Z,29.5
2014-08-05T12:18:16.351Z,29.5
2014-08-05T12:18:34.695Z,29.5
2014-08-05T12:18:53.023Z,29.6
2014-08-05T12:19:11.369Z,29.6
2014-08-05T12:19:29.697Z,29.6
2014-08-05T12:19:48.025Z,29.6
2014-08-05T12:20:06.353Z,29.6
2014-08-05T12:20:24.699Z,29.6
2014-08-05T12:20:43.027Z,29.6
2014-08-05T12:21:01.371Z,29.6
2014-08-05T12:21:19.701Z,29.5
2014-08-05T12:21:38.029Z,29.5
2014-08-05T12:21:56.357Z,29.5
2014-08-05T12:22:14.686Z,29.5
2014-08-05T12:22:33.030Z,29.5
2014-08-05T12:22:51.358Z,29.5
2014-08-05T12:23:09.686Z,29.5
2014-08-05T12:23:28.032Z,29.5
2014-08-05T12:23:46.376Z,29.5
2014-08-05T12:24:04.719Z,29.5
2014-08-05T12:24:23.050Z,29.5
2014-08-05T12:24:41.378Z,29.5
2014-08-05T12:24:59.706Z,29.4
2014-08-05T12:25:18.036Z,29.4
2014-08-05T12:25:36.380Z,29.4
2014-08-05T12:25:54.708Z,29.4
2014-08-05T12:26:13.242Z,29.4
2014-08-05T12:26:31.383Z,29.4
2014-08-05T12:26:49.711Z,29.4
2014-08-05T12:27:08.055Z,29.4
2014-08-05T12:27:26.385Z,29.4
2014-08-05T12:27:44.713Z,29.4
2014-08-05T12:28:03.041Z,29.4
2014-08-05T12:28:21.386Z,29.3
2014-08-05T12:28:39.714Z,29.3
2014-08-05T12:28:58.042Z,29.2
2014-08-05T12:29:16.372Z,29.2
2014-08-05T12:29:34.716Z,29.1
2014-08-05T12:29:53.044Z,29.1
2014-08-05T12:30:11.372Z,29
2014-08-05T12:30:29.718Z,29
2014-08-05T12:30:48.046Z,28.9
2014-08-05T12:31:06.374Z,28.9
2014-08-05T12:31:24.704Z,28.8
2014-08-05T12:31:43.048Z,28.8
2014-08-05T12:32:01.376Z,28.8
2014-08-05T12:32:19.706Z,28.7
2014-08-05T12:32:38.050Z,28.8
2014-08-05T12:32:56.378Z,28.7
2014-08-05T12:33:14.706Z,28.7
2014-08-05T12:33:33.036Z,28.7
2014-08-05T12:33:51.568Z,28.8
2014-08-05T12:34:09.708Z,28.7
2014-08-05T12:34:28.038Z,28.7
2014-08-05T12:34:46.382Z,28.7
2014-08-05T12:35:04.710Z,28.8
2014-08-05T12:35:23.056Z,28.7
2014-08-05T12:35:41.384Z,28.7
2014-08-05T12:35:59.712Z,28.7
2014-08-05T12:36:18.056Z,28.7
2014-08-05T12:36:36.370Z,28.7
2014-08-05T12:36:54.714Z,28.7
2014-08-05T12:37:13.245Z,28.7
2014-08-05T12:37:31.388Z,28.7
2014-08-05T12:37:49.685Z,28.7
2014-08-05T12:38:08.044Z,28.7
2014-08-05T12:38:26.390Z,28.7
2014-08-05T12:38:44.718Z,28.7
2014-08-05T12:39:03.046Z,28.7
2014-08-05T12:39:21.390Z,28.7
2014-08-05T12:39:39.720Z,28.7
2014-08-05T12:39:58.048Z,28.6
2014-08-05T12:40:16.392Z,28.6
2014-08-05T12:40:34.722Z,28.6
2014-08-05T12:40:53.050Z,28.6
2014-08-05T12:41:11.378Z,28.5
2014-08-05T12:41:29.724Z,28.5
2014-08-05T12:41:48.052Z,28.4
2014-08-05T12:42:06.380Z,28.4
2014-08-05T12:42:24.709Z,28.4
2014-08-05T12:42:43.257Z,28.3
2014-08-05T12:43:01.382Z,28.3
2014-08-05T12:43:19.711Z,28.3
2014-08-05T12:43:38.041Z,28.2
2014-08-05T12:43:56.384Z,28.2
2014-08-05T12:44:14.713Z,28.2
2014-08-05T12:44:33.043Z,28.2
2014-08-05T12:44:51.371Z,28.2
2014-08-05T12:45:09.715Z,28.2
2014-08-05T12:45:28.043Z,28.2
2014-08-05T12:45:46.373Z,28.1
2014-08-05T12:46:04.717Z,28.1
2014-08-05T12:46:23.045Z,28.1
2014-08-05T12:46:41.375Z,28.1
2014-08-05T12:46:59.703Z,28
2014-08-05T12:47:18.031Z,28
2014-08-05T12:47:36.359Z,27.9
2014-08-05T12:47:54.689Z,27.9
2014-08-05T12:48:13.017Z,27.9
2014-08-05T12:48:31.361Z,27.9
2014-08-05T12:48:49.691Z,27.9
2014-08-05T12:49:08.035Z,27.9
2014-08-05T12:49:26.363Z,27.8
2014-08-05T12:49:44.691Z,27.7
2014-08-05T12:50:03.037Z,27.7
2014-08-05T12:50:21.365Z,27.7
2014-08-05T12:50:39.693Z,27.7
2014-08-05T12:50:58.039Z,27.7
2014-08-05T12:51:16.367Z,27.6
2014-08-05T12:51:34.695Z,27.6
2014-08-05T12:51:53.229Z,27.6
2014-08-05T12:52:11.369Z,27.6
2014-08-05T12:52:29.697Z,27.6
2014-08-05T12:52:48.041Z,27.6
2014-08-05T12:53:06.371Z,27.6
2014-08-05T12:53:24.699Z,27.5
2014-08-05T12:53:43.043Z,27.5
2014-08-05T12:54:01.372Z,27.5
2014-08-05T12:54:19.700Z,27.5
2014-08-05T12:54:38.044Z,27.5
2014-08-05T12:54:56.375Z,27.5
2014-08-05T12:55:14.703Z,27.5
2014-08-05T12:55:33.047Z,27.4
2014-08-05T12:55:51.375Z,27.4
2014-08-05T12:56:09.704Z,27.4
2014-08-05T12:56:28.048Z,27.4
2014-08-05T12:56:46.376Z,27.4
2014-08-05T12:57:04.706Z,27.3
2014-08-05T12:57:23.034Z,27.3
2014-08-05T12:57:41.363Z,27.3
2014-08-05T12:57:59.708Z,27.3
2014-08-05T12:58:18.036Z,27.3
2014-08-05T12:58:36.380Z,27.3
2014-08-05T12:58:54.708Z,27.3
2014-08-05T12:59:13.039Z,27.4
2014-08-05T12:59:31.368Z,27.4
2014-08-05T12:59:49.711Z,27.4
2014-08-05T13:00:08.041Z,27.4
2014-08-05T13:00:26.370Z,27.4
2014-08-05T13:00:44.698Z,27.4
2014-08-05T13:01:03.042Z,27.4
2014-08-05T13:01:21.371Z,27.4
2014-08-05T13:01:39.699Z,27.4
2014-08-05T13:01:58.027Z,27.4
2014-08-05T13:02:16.358Z,27.4
2014-08-05T13:02:34.702Z,27.4
2014-08-05T13:02:53.045Z,27.4
2014-08-05T13:03:11.360Z,27.4